Time;durP1;ratioP1;P1;durP2;ratioP2;P2;SDS_P1;SDS_P2;PMS_P1;PMS_P2;Temp;Humidity;BMP_temperature;BMP_pressure;BME280_temperature;BME280_humidity;BME280_pressure;Samples;Min_cycle;Max_cycle;Signal;HPM_P1;HPM_P2
2022/10/31 00:02:42;;;;;;;26.35;13.32;;;15.00;82.80;;;;;;9177954;19;20375;-72
2022/10/31 00:05:50;;;;;;;28.40;11.35;;;15.00;82.90;;;;;;9176407;19;20347;-72
2022/10/31 00:08:55;;;;;;;20.63;10.88;;;15.00;83.00;;;;;;9180152;19;20015;-72
2022/10/31 00:11:59;;;;;;;22.35;10.95;;;15.00;83.00;;;;;;9175410;19;20019;-69
2022/10/31 00:15:03;;;;;;;22.75;12.07;;;14.90;83.60;;;;;;9174371;19;20151;-69
2022/10/31 00:18:08;;;;;;;25.65;11.32;;;14.90;83.00;;;;;;9175826;19;20120;-72
2022/10/31 00:21:14;;;;;;;25.48;11.05;;;14.90;83.00;;;;;;9179920;19;20464;-72
2022/10/31 00:24:17;;;;;;;24.92;10.52;;;14.80;83.00;;;;;;9178778;19;20010;-72
2022/10/31 00:27:21;;;;;;;19.35;10.20;;;14.80;83.00;;;;;;9177448;19;20029;-72
2022/10/31 00:30:24;;;;;;;21.52;10.23;;;14.80;83.00;;;;;;9177435;19;20512;-69
2022/10/31 00:33:28;;;;;;;24.92;10.82;;;14.70;83.00;;;;;;9177140;19;20068;-71
2022/10/31 00:36:34;;;;;;;;;;;14.70;83.00;;;;;;9177522;19;20026;-72
2022/10/31 00:39:39;;;;;;;23.08;9.88;;;14.70;83.00;;;;;;9178662;19;20455;-71
2022/10/31 00:42:43;;;;;;;23.90;11.10;;;14.60;82.90;;;;;;9177237;19;20357;-71
2022/10/31 00:45:47;;;;;;;22.20;10.63;;;14.60;83.00;;;;;;9176871;19;20476;-71
2022/10/31 00:48:50;;;;;;;22.83;10.63;;;14.50;83.00;;;;;;9175972;19;20035;-72
2022/10/31 00:51:56;;;;;;;18.67;10.05;;;14.50;83.10;;;;;;9175828;19;20014;-70
2022/10/31 00:54:59;;;;;;;23.13;10.85;;;14.50;83.10;;;;;;9176404;19;20018;-71
2022/10/31 00:58:03;;;;;;;23.10;10.00;;;14.50;83.10;;;;;;9174912;19;20434;-71
2022/10/31 01:01:09;;;;;;;25.38;9.30;;;14.50;83.20;;;;;;9177099;19;20523;-71
2022/10/31 01:04:13;;;;;;;19.20;8.98;;;14.40;83.10;;;;;;9175637;19;20371;-71
2022/10/31 01:07:18;;;;;;;15.77;8.63;;;14.40;83.20;;;;;;9177544;19;20010;-72
2022/10/31 01:10:22;;;;;;;17.45;9.20;;;14.40;83.20;;;;;;9175564;19;20028;-70
2022/10/31 01:13:27;;;;;;;21.58;9.40;;;14.30;83.30;;;;;;9176294;19;20018;-70
2022/10/31 01:16:31;;;;;;;23.60;9.05;;;14.30;83.20;;;;;;9172548;19;20036;-72
2022/10/31 01:19:35;;;;;;;18.27;9.40;;;14.30;83.60;;;;;;9172117;19;20022;-71
2022/10/31 01:22:40;;;;;;;16.55;8.68;;;14.20;83.30;;;;;;9175183;19;20011;-72
2022/10/31 01:25:44;;;;;;;20.13;9.80;;;14.20;83.30;;;;;;9179146;19;20022;-71
2022/10/31 01:28:49;;;;;;;14.70;8.50;;;14.20;83.30;;;;;;9182772;19;20064;-71
2022/10/31 01:31:53;;;;;;;14.75;8.73;;;14.20;83.40;;;;;;9183592;19;20019;-70
2022/10/31 01:34:57;;;;;;;22.17;8.95;;;14.20;83.30;;;;;;9183428;19;20424;-69
2022/10/31 01:38:02;;;;;;;15.38;8.80;;;14.10;83.30;;;;;;9182254;19;20078;-72
2022/10/31 01:41:06;;;;;;;17.98;9.50;;;14.10;83.30;;;;;;9182806;19;20475;-71
2022/10/31 01:44:26;;;;;;;;;;;14.10;83.40;;;;;;9184423;19;20015;-70
2022/10/31 01:47:42;;;;;;;14.50;9.27;;;14.00;83.20;;;;;;9180683;19;19956;-71
2022/10/31 01:50:48;;;;;;;15.52;9.48;;;14.00;83.20;;;;;;9182511;19;20070;-70
2022/10/31 01:53:57;;;;;;;20.40;9.40;;;13.90;83.20;;;;;;9184222;19;20082;-71
2022/10/31 01:57:02;;;;;;;17.52;9.18;;;13.90;83.30;;;;;;9183891;19;20022;-70
2022/10/31 02:00:09;;;;;;;15.20;8.52;;;13.80;83.30;;;;;;9182088;19;20523;-70
2022/10/31 02:03:20;;;;;;;21.75;9.30;;;13.80;83.30;;;;;;9183417;19;20006;-69
2022/10/31 02:06:34;;;;;;;20.42;9.25;;;13.70;83.30;;;;;;9182582;19;20187;-69
2022/10/31 02:09:41;;;;;;;20.08;9.50;;;13.70;83.30;;;;;;9181710;19;20054;-71
2022/10/31 02:12:46;;;;;;;17.70;8.55;;;13.70;83.40;;;;;;9182283;19;20040;-71
2022/10/31 02:15:54;;;;;;;23.98;9.70;;;13.60;83.30;;;;;;9177501;19;20018;-70
2022/10/31 02:18:58;;;;;;;15.05;8.77;;;13.50;83.40;;;;;;9181208;19;20476;-70
2022/10/31 02:22:09;;;;;;;15.40;8.80;;;13.50;83.40;;;;;;9181373;19;20014;-71
2022/10/31 02:25:44;;;;;;;18.58;9.13;;;13.50;84.10;;;;;;9180695;19;20052;-70
2022/10/31 02:29:07;;;;;;;20.08;8.23;;;13.40;83.40;;;;;;9180634;19;20078;-70
2022/10/31 02:32:18;;;;;;;13.55;8.20;;;13.40;83.40;;;;;;9182010;19;20026;-70
2022/10/31 02:35:37;;;;;;;15.18;7.95;;;13.30;83.40;;;;;;9179453;19;20014;-70
2022/10/31 02:38:50;;;;;;;17.85;8.93;;;13.30;83.40;;;;;;9179157;19;20044;-71
2022/10/31 02:42:09;;;;;;;14.05;7.68;;;13.30;83.50;;;;;;9180692;19;20012;-70
2022/10/31 02:45:21;;;;;;;14.98;8.38;;;13.20;83.50;;;;;;9181567;19;20082;-71
2022/10/31 02:48:29;;;;;;;13.07;7.93;;;13.20;83.50;;;;;;9181187;19;20895;-70
2022/10/31 02:51:33;;;;;;;12.88;7.95;;;13.10;83.40;;;;;;9180738;19;20797;-70
2022/10/31 02:54:37;;;;;;;17.98;7.95;;;13.10;83.50;;;;;;9179870;19;20019;-71
2022/10/31 02:57:42;;;;;;;15.70;7.90;;;13.00;83.40;;;;;;9179297;19;20044;-71
2022/10/31 03:00:55;;;;;;;14.98;8.13;;;13.00;83.50;;;;;;9182058;19;20014;-70
2022/10/31 03:04:18;;;;;;;12.80;8.05;;;13.00;83.50;;;;;;9181052;19;20161;-71
2022/10/31 03:07:30;;;;;;;15.45;8.38;;;12.90;83.50;;;;;;9180957;19;20049;-71
2022/10/31 03:10:44;;;;;;;19.52;8.60;;;12.90;83.50;;;;;;9180347;19;20019;-71
2022/10/31 03:13:51;;;;;;;13.80;8.05;;;12.80;83.50;;;;;;9183358;19;20022;-71
2022/10/31 03:16:59;;;;;;;19.63;8.95;;;12.80;83.50;;;;;;9172492;19;20045;-70
2022/10/31 03:20:08;;;;;;;16.23;8.20;;;12.80;83.60;;;;;;9182182;19;20373;-71
2022/10/31 03:23:15;;;;;;;17.85;9.20;;;12.70;83.60;;;;;;9180914;19;20074;-70
2022/10/31 03:26:23;;;;;;;14.43;8.13;;;12.70;83.70;;;;;;9179065;19;20042;-70
2022/10/31 03:29:31;;;;;;;17.73;9.43;;;12.70;83.70;;;;;;9179616;19;20027;-70
2022/10/31 03:32:38;;;;;;;19.50;9.18;;;12.70;83.80;;;;;;9180772;19;20482;-69
2022/10/31 03:35:48;;;;;;;23.63;10.10;;;12.70;83.80;;;;;;9178133;19;20375;-71
2022/10/31 03:38:53;;;;;;;18.10;9.27;;;12.60;83.80;;;;;;9177988;19;20018;-71
2022/10/31 03:42:01;;;;;;;24.40;9.52;;;12.60;83.80;;;;;;9178876;19;20010;-71
2022/10/31 03:45:10;;;;;;;19.77;8.57;;;12.60;83.80;;;;;;9177110;19;20022;-70
2022/10/31 03:48:15;;;;;;;18.48;8.63;;;12.60;83.90;;;;;;9176808;19;20025;-70
2022/10/31 03:51:25;;;;;;;17.00;8.00;;;12.60;83.90;;;;;;9178535;19;20350;-71
2022/10/31 03:54:33;;;;;;;14.90;7.78;;;12.60;83.90;;;;;;9177315;19;20029;-71
2022/10/31 03:57:43;;;;;;;12.35;7.50;;;12.60;83.90;;;;;;9179750;19;20015;-71
2022/10/31 04:00:50;;;;;;;10.80;6.57;;;12.50;83.90;;;;;;9177811;19;20781;-70
2022/10/31 04:03:54;;;;;;;16.00;7.47;;;12.50;83.80;;;;;;9178080;19;20018;-71
2022/10/31 04:07:03;;;;;;;14.23;7.72;;;12.50;83.90;;;;;;9177707;19;20074;-71
2022/10/31 04:10:11;;;;;;;15.75;6.95;;;12.50;83.90;;;;;;9178314;19;20018;-72
2022/10/31 04:13:19;;;;;;;12.50;7.05;;;12.40;83.80;;;;;;9176177;19;20031;-70
2022/10/31 04:16:50;;;;;;;12.15;6.43;;;12.40;83.80;;;;;;9172956;19;20087;-69
2022/10/31 04:20:01;;;;;;;12.82;6.68;;;12.30;83.70;;;;;;9174228;19;20486;-71
2022/10/31 04:23:12;;;;;;;11.07;6.32;;;12.30;83.70;;;;;;9177149;19;20018;-70
2022/10/31 04:26:18;;;;;;;8.73;4.68;;;12.30;83.80;;;;;;9177328;19;20015;-69
2022/10/31 04:29:21;;;;;;;9.63;4.85;;;12.30;83.80;;;;;;9179207;19;20014;-70
2022/10/31 04:32:25;;;;;;;6.53;4.63;;;12.20;83.80;;;;;;9176714;19;20666;-70
2022/10/31 04:35:29;;;;;;;8.25;4.45;;;12.20;83.80;;;;;;9177457;19;20019;-70
2022/10/31 04:38:35;;;;;;;8.90;4.97;;;12.20;83.80;;;;;;9177366;19;20013;-71
2022/10/31 04:41:44;;;;;;;8.32;4.43;;;12.10;83.80;;;;;;9175270;19;20018;-72
2022/10/31 04:44:50;;;;;;;5.80;4.10;;;12.10;83.80;;;;;;9177021;19;20022;-71
2022/10/31 04:47:54;;;;;;;7.55;4.65;;;12.00;83.80;;;;;;9176458;19;20007;-70
2022/10/31 04:51:03;;;;;;;7.82;4.55;;;12.00;83.80;;;;;;9175722;19;20015;-71
2022/10/31 04:54:09;;;;;;;9.80;4.85;;;12.00;83.80;;;;;;9176915;19;20038;-70
2022/10/31 04:57:42;;;;;;;12.45;4.13;;;11.90;83.80;;;;;;9177196;19;20040;-70
2022/10/31 05:00:46;;;;;;;9.95;4.38;;;11.90;83.80;;;;;;9175104;19;20015;-71
2022/10/31 05:03:50;;;;;;;12.13;5.10;;;11.80;83.80;;;;;;9176303;19;20018;-70
2022/10/31 05:06:54;;;;;;;9.40;5.30;;;11.80;83.80;;;;;;9175153;19;20015;-70
2022/10/31 05:10:00;;;;;;;17.60;4.88;;;11.80;83.80;;;;;;9172939;19;20022;-70
2022/10/31 05:13:05;;;;;;;13.40;4.88;;;11.70;83.80;;;;;;9175467;19;20018;-70
2022/10/31 05:16:30;;;;;;;11.80;5.00;;;11.70;83.80;;;;;;9171781;19;20384;-69
2022/10/31 05:20:03;;;;;;;13.68;5.53;;;11.70;83.80;;;;;;9169529;19;20015;-70
2022/10/31 05:23:35;;;;;;;15.27;6.28;;;11.60;83.80;;;;;;9175346;19;20496;-70
2022/10/31 05:26:43;;;;;;;18.13;7.85;;;11.60;83.80;;;;;;9175150;19;20082;-70
2022/10/31 05:29:47;;;;;;;18.40;8.43;;;11.50;83.80;;;;;;9175112;19;20021;-70
2022/10/31 05:32:52;;;;;;;16.95;8.52;;;11.50;83.80;;;;;;9176434;19;20791;-71
2022/10/31 05:36:21;;;;;;;19.10;9.52;;;11.50;83.80;;;;;;9174500;19;20395;-70
2022/10/31 05:39:29;;;;;;;15.63;8.32;;;11.50;83.90;;;;;;9173837;19;20384;-71
2022/10/31 05:42:40;;;;;;;18.27;7.47;;;11.40;83.80;;;;;;9174746;19;20006;-70
2022/10/31 05:45:43;;;;;;;27.00;8.23;;;11.40;83.90;;;;;;9174598;19;20039;-69
2022/10/31 05:49:04;;;;;;;17.10;7.35;;;11.40;83.90;;;;;;9173732;19;20023;-69
2022/10/31 05:52:26;;;;;;;15.68;7.25;;;11.30;83.80;;;;;;9177607;19;20021;-71
2022/10/31 05:55:37;;;;;;;17.45;7.05;;;11.30;83.90;;;;;;9173630;19;20062;-70
2022/10/31 05:58:56;;;;;;;16.65;7.82;;;11.30;83.90;;;;;;9171480;19;20099;-72
2022/10/31 06:02:02;;;;;;;22.83;7.63;;;11.30;83.90;;;;;;9174189;19;20023;-70
2022/10/31 06:05:24;;;;;;;20.25;7.88;;;11.20;83.90;;;;;;9171407;19;20049;-71
2022/10/31 06:08:29;;;;;;;20.30;8.63;;;11.20;83.90;;;;;;9174973;19;20078;-69
2022/10/31 06:11:36;;;;;;;22.10;8.27;;;11.20;84.00;;;;;;9180650;19;20021;-70
2022/10/31 06:14:42;;;;;;;24.58;8.90;;;11.20;84.00;;;;;;9183329;19;20085;-70
2022/10/31 06:17:46;;;;;;;16.85;7.38;;;11.20;84.10;;;;;;9177118;19;20490;-70
2022/10/31 06:20:58;;;;;;;19.92;8.32;;;11.10;84.00;;;;;;9181954;19;20085;-71
2022/10/31 06:24:02;;;;;;;15.30;7.65;;;11.10;84.00;;;;;;9181052;19;20018;-70
2022/10/31 06:27:28;;;;;;;19.30;7.43;;;11.10;84.00;;;;;;9182867;19;20018;-71
2022/10/31 06:30:36;;;;;;;11.45;6.38;;;11.10;84.00;;;;;;9180027;19;20028;-71
2022/10/31 06:33:42;;;;;;;15.88;7.85;;;11.10;84.10;;;;;;9181101;19;20006;-72
2022/10/31 06:36:47;;;;;;;17.83;7.88;;;11.10;84.00;;;;;;9182733;19;20025;-72
2022/10/31 06:39:52;;;;;;;13.95;6.40;;;11.10;84.00;;;;;;9177037;19;20023;-71
2022/10/31 06:42:59;;;;;;;16.67;8.30;;;11.10;84.10;;;;;;9180305;19;20021;-71
2022/10/31 06:46:06;;;;;;;17.95;8.80;;;11.10;84.10;;;;;;9181249;19;20047;-71
2022/10/31 06:49:16;;;;;;;17.58;7.85;;;11.00;84.10;;;;;;9180151;19;20019;-71
2022/10/31 06:52:30;;;;;;;22.15;8.30;;;11.00;84.10;;;;;;9179798;19;20085;-72
2022/10/31 06:55:33;;;;;;;16.75;8.45;;;11.00;84.10;;;;;;9181381;19;20014;-71
2022/10/31 06:58:37;;;;;;;;;;;11.00;84.10;;;;;;9180510;19;20034;-72
2022/10/31 07:01:45;;;;;;;22.02;8.10;;;11.00;84.10;;;;;;9176813;19;19923;-70
2022/10/31 07:04:49;;;;;;;16.67;8.57;;;11.00;84.00;;;;;;9177072;19;20010;-72
2022/10/31 07:07:55;;;;;;;22.25;8.95;;;11.00;84.10;;;;;;9178837;19;20094;-70
2022/10/31 07:10:59;;;;;;;18.17;9.20;;;11.00;84.20;;;;;;9177872;19;20019;-71
2022/10/31 07:14:05;;;;;;;19.48;9.38;;;11.00;84.20;;;;;;9171526;19;20023;-71
2022/10/31 07:17:11;;;;;;;20.17;9.45;;;11.00;84.20;;;;;;9169140;19;20043;-71
2022/10/31 07:20:18;;;;;;;18.50;8.65;;;11.00;84.30;;;;;;9170255;19;20377;-70
2022/10/31 07:23:22;;;;;;;19.50;8.65;;;11.00;84.30;;;;;;9173184;19;20051;-71
2022/10/31 07:26:47;;;;;;;20.00;8.70;;;11.00;84.30;;;;;;9173635;19;20640;-71
2022/10/31 07:29:51;;;;;;;18.80;9.38;;;11.00;84.30;;;;;;9174867;19;20011;-68
2022/10/31 07:32:57;;;;;;;19.85;10.00;;;10.90;84.30;;;;;;9173704;19;20011;-71
2022/10/31 07:36:09;;;;;;;16.75;8.57;;;11.00;84.40;;;;;;9175806;19;20602;-72
2022/10/31 07:39:17;;;;;;;15.02;8.45;;;11.00;84.40;;;;;;9175335;19;20015;-71
2022/10/31 07:42:21;;;;;;;18.48;8.82;;;11.00;84.40;;;;;;9180436;19;20025;-70
2022/10/31 07:45:26;;;;;;;16.67;9.05;;;11.00;84.50;;;;;;9178573;19;20587;-72
2022/10/31 07:48:51;;;;;;;19.10;9.00;;;11.00;84.50;;;;;;9180042;19;20424;-70
2022/10/31 07:52:13;;;;;;;41.65;13.25;;;11.00;84.50;;;;;;9178451;19;20026;-70
2022/10/31 07:55:49;;;;;;;66.75;16.00;;;11.00;84.60;;;;;;9177117;19;20495;-72
2022/10/31 07:58:52;;;;;;;;;;;11.00;84.50;;;;;;9176090;19;20015;-72
2022/10/31 08:01:56;;;;;;;17.33;9.85;;;11.10;84.60;;;;;;9180404;19;19952;-72
2022/10/31 08:05:10;;;;;;;21.95;10.65;;;11.10;84.50;;;;;;9176616;19;20011;-70
2022/10/31 08:08:33;;;;;;;22.85;11.20;;;11.10;84.70;;;;;;9177053;19;20022;-71
2022/10/31 08:11:41;;;;;;;20.75;11.30;;;11.10;84.70;;;;;;9177365;19;20021;-72
2022/10/31 08:14:45;;;;;;;25.55;11.93;;;11.20;84.90;;;;;;9179289;19;20010;-71
2022/10/31 08:17:51;;;;;;;34.25;15.68;;;11.30;85.00;;;;;;9172947;19;20472;-73
2022/10/31 08:20:57;;;;;;;41.75;18.30;;;11.30;85.10;;;;;;9177190;19;20014;-72
2022/10/31 08:24:01;;;;;;;40.47;18.15;;;11.40;85.20;;;;;;9178880;19;20023;-73
2022/10/31 08:27:05;;;;;;;39.72;19.08;;;11.50;85.30;;;;;;9177330;19;20044;-72
2022/10/31 08:30:10;;;;;;;40.65;19.08;;;11.60;85.40;;;;;;9176534;19;20027;-70
2022/10/31 08:33:19;;;;;;;35.35;18.92;;;11.60;85.40;;;;;;9174723;19;20042;-73
2022/10/31 08:36:44;;;;;;;39.35;19.10;;;11.70;85.50;;;;;;9178035;19;20007;-73
2022/10/31 08:39:52;;;;;;;41.10;18.98;;;11.80;85.50;;;;;;9174113;19;20388;-73
2022/10/31 08:42:58;;;;;;;45.50;20.23;;;11.90;85.60;;;;;;9177592;19;20014;-72
2022/10/31 08:46:03;;;;;;;43.58;20.83;;;12.00;85.70;;;;;;9175912;19;20022;-72
2022/10/31 08:49:06;;;;;;;;;;;12.10;85.80;;;;;;9176912;19;20031;-72
2022/10/31 08:52:14;;;;;;;44.63;20.48;;;12.20;85.80;;;;;;9176452;19;20325;-71
2022/10/31 08:55:20;;;;;;;43.47;20.20;;;12.30;85.60;;;;;;9172508;19;20061;-72
2022/10/31 08:58:24;;;;;;;42.17;19.08;;;12.30;85.80;;;;;;9175431;19;20018;-73
2022/10/31 09:01:32;;;;;;;38.72;20.52;;;12.40;86.40;;;;;;9171574;19;20022;-72
2022/10/31 09:04:36;;;;;;;;;;;12.50;85.90;;;;;;9165158;19;20011;-72
2022/10/31 09:07:42;;;;;;;42.47;19.63;;;12.60;85.90;;;;;;9169027;19;19915;-73
2022/10/31 09:10:46;;;;;;;58.40;23.27;;;12.70;85.80;;;;;;9169822;19;20025;-67
2022/10/31 09:13:54;;;;;;;48.60;22.55;;;12.70;86.20;;;;;;9164907;19;20014;-74
2022/10/31 09:17:28;;;;;;;59.63;23.70;;;12.90;86.10;;;;;;9163147;19;20015;-73
2022/10/31 09:20:52;;;;;;;54.95;25.17;;;13.00;86.20;;;;;;9170416;19;20018;-72
2022/10/31 09:23:57;;;;;;;60.42;24.67;;;13.10;86.30;;;;;;9166641;19;20019;-71
2022/10/31 09:27:01;;;;;;;54.15;24.73;;;13.20;86.50;;;;;;9165546;19;20021;-74
2022/10/31 09:30:06;;;;;;;56.53;25.20;;;13.30;86.60;;;;;;9169499;19;20019;-74
2022/10/31 09:33:12;;;;;;;56.53;25.50;;;13.50;86.70;;;;;;9169882;19;20022;-73
2022/10/31 09:36:20;;;;;;;56.70;24.00;;;13.60;86.70;;;;;;9167086;19;20018;-72
2022/10/31 09:39:25;;;;;;;52.35;22.85;;;13.70;86.80;;;;;;9168073;19;20018;-73
2022/10/31 09:42:45;;;;;;;45.20;20.88;;;13.90;86.90;;;;;;9175366;19;20018;-73
2022/10/31 09:46:03;;;;;;;43.65;20.05;;;14.00;87.00;;;;;;9173418;19;20085;-73
2022/10/31 09:49:33;;;;;;;46.90;19.98;;;14.10;86.90;;;;;;9169595;19;20022;-74
2022/10/31 09:52:41;;;;;;;43.78;19.02;;;14.30;87.00;;;;;;9174783;19;20010;-73
2022/10/31 09:55:49;;;;;;;39.30;17.00;;;14.40;86.80;;;;;;9173134;19;20026;-72
2022/10/31 09:58:55;;;;;;;37.13;16.08;;;14.50;86.80;;;;;;9178340;19;20011;-73
2022/10/31 10:02:02;;;;;;;33.75;16.65;;;14.60;86.70;;;;;;9181266;19;20448;-74
2022/10/31 10:05:11;;;;;;;37.15;16.77;;;14.70;86.70;;;;;;9179571;19;20074;-74
2022/10/31 10:08:21;;;;;;;40.53;18.08;;;14.80;86.80;;;;;;9180983;19;20014;-73
2022/10/31 10:12:11;;;;;;;34.78;16.10;;;14.90;86.80;;;;;;9167791;19;20019;-70
2022/10/31 10:15:36;;;;;;;33.22;15.40;;;15.00;86.80;;;;;;9167163;19;20680;-73
2022/10/31 10:18:49;;;;;;;34.90;17.48;;;15.10;86.90;;;;;;9177868;19;20022;-74
2022/10/31 10:22:02;;;;;;;34.88;14.40;;;15.30;86.80;;;;;;9177427;19;20098;-73
2022/10/31 10:25:17;;;;;;;30.92;14.25;;;15.40;86.80;;;;;;9179978;19;20488;-73
2022/10/31 10:28:29;;;;;;;31.42;13.18;;;15.60;86.90;;;;;;9179269;19;20503;-72
2022/10/31 10:31:42;;;;;;;30.58;12.75;;;15.70;86.90;;;;;;9178994;19;20022;-72
2022/10/31 10:34:51;;;;;;;25.05;11.07;;;15.90;86.80;;;;;;9177888;19;20018;-72
2022/10/31 10:37:59;;;;;;;22.20;10.27;;;16.10;86.60;;;;;;9174580;19;20044;-73
2022/10/31 10:41:06;;;;;;;17.30;9.13;;;16.30;86.40;;;;;;9174178;19;20019;-70
2022/10/31 10:44:15;;;;;;;16.70;8.00;;;16.50;86.20;;;;;;9170294;19;20022;-71
2022/10/31 10:50:41;;;;;;;15.38;6.78;;;16.80;85.80;;;;;;9173384;19;20180;-72
2022/10/31 10:54:02;;;;;;;17.67;7.15;;;16.90;85.60;;;;;;9169519;19;20404;-74
2022/10/31 10:57:28;;;;;;;13.82;6.15;;;17.00;85.20;;;;;;9168020;19;20116;-72
2022/10/31 11:00:37;;;;;;;16.15;5.80;;;17.10;85.00;;;;;;9171626;19;20194;-73
2022/10/31 11:03:42;;;;;;;16.85;4.93;;;17.20;84.80;;;;;;9172962;19;20362;-74
2022/10/31 11:06:46;;;;;;;13.55;5.03;;;17.30;84.60;;;;;;9148494;19;20533;-73
2022/10/31 11:09:50;;;;;;;9.07;4.32;;;17.30;84.30;;;;;;9180645;19;20061;-73
2022/10/31 11:13:05;;;;;;;10.27;5.43;;;17.40;84.10;;;;;;9173079;19;20098;-75
2022/10/31 11:16:13;;;;;;;11.93;5.35;;;17.40;84.50;;;;;;9169951;19;20621;-73
2022/10/31 11:19:20;;;;;;;14.75;5.65;;;17.40;83.80;;;;;;9171333;19;20018;-74
2022/10/31 11:22:24;;;;;;;12.75;5.53;;;17.40;83.70;;;;;;9168405;19;20018;-70
2022/10/31 11:25:28;;;;;;;11.48;5.25;;;17.50;83.70;;;;;;9171489;19;20036;-70
2022/10/31 11:28:34;;;;;;;10.52;5.75;;;17.40;83.50;;;;;;9172076;19;20025;-74
2022/10/31 11:31:41;;;;;;;12.75;5.30;;;17.50;83.40;;;;;;9168430;19;20015;-75
2022/10/31 11:34:46;;;;;;;12.02;6.22;;;17.50;83.70;;;;;;9171104;19;20027;-73
2022/10/31 11:37:53;;;;;;;14.30;6.05;;;17.50;83.30;;;;;;9168961;19;20031;-72
2022/10/31 11:41:00;;;;;;;13.05;5.50;;;17.50;83.20;;;;;;9163559;19;20520;-71
2022/10/31 11:44:07;;;;;;;10.18;5.70;;;17.50;83.10;;;;;;9166449;19;20014;-74
2022/10/31 11:47:17;;;;;;;11.02;6.45;;;17.50;83.10;;;;;;9171492;19;20017;-74
2022/10/31 11:50:22;;;;;;;11.45;5.82;;;17.50;83.00;;;;;;9168134;19;20015;-73
2022/10/31 11:53:30;;;;;;;12.70;5.93;;;17.50;82.90;;;;;;9166992;19;20015;-72
2022/10/31 11:56:44;;;;;;;12.88;5.75;;;17.50;82.80;;;;;;9173822;19;20018;-70
2022/10/31 11:59:53;;;;;;;15.68;5.50;;;17.60;82.80;;;;;;9166676;19;20011;-73
2022/10/31 12:03:15;;;;;;;11.50;5.75;;;17.60;82.80;;;;;;9173420;19;20029;-74
2022/10/31 12:06:23;;;;;;;9.98;5.93;;;17.60;82.50;;;;;;9168159;19;20029;-74
2022/10/31 12:09:31;;;;;;;19.05;7.07;;;17.60;82.60;;;;;;9170682;19;20472;-73
2022/10/31 12:12:59;;;;;;;15.52;5.85;;;17.60;82.50;;;;;;9171676;19;20117;-75
2022/10/31 12:16:12;;;;;;;12.02;5.63;;;17.60;82.20;;;;;;9165059;19;20022;-73
2022/10/31 12:19:29;;;;;;;12.95;5.60;;;17.60;82.20;;;;;;9165144;19;20025;-72
2022/10/31 12:22:43;;;;;;;10.52;5.45;;;17.60;82.10;;;;;;9172622;19;20014;-75
2022/10/31 12:25:54;;;;;;;15.70;6.10;;;17.60;82.10;;;;;;9167944;19;20038;-74
2022/10/31 12:29:12;;;;;;;9.70;5.32;;;17.60;82.00;;;;;;9169634;19;20026;-72
2022/10/31 12:32:29;;;;;;;12.73;5.93;;;17.70;81.90;;;;;;9169460;19;20018;-71
2022/10/31 12:35:47;;;;;;;11.93;5.28;;;17.70;81.90;;;;;;9168256;19;20101;-74
2022/10/31 12:39:08;;;;;;;10.95;4.97;;;17.70;81.80;;;;;;9162572;19;20022;-70
2022/10/31 12:42:21;;;;;;;8.70;4.68;;;17.70;81.70;;;;;;9164591;19;20018;-74
2022/10/31 12:45:38;;;;;;;13.07;5.97;;;17.70;81.70;;;;;;9163499;19;20692;-72
2022/10/31 12:49:11;;;;;;;9.55;4.40;;;17.70;81.70;;;;;;9159104;19;20025;-72
2022/10/31 12:52:31;;;;;;;11.80;4.65;;;17.70;81.50;;;;;;9167088;19;20017;-73
2022/10/31 12:55:43;;;;;;;10.77;4.38;;;17.70;81.50;;;;;;9163962;19;20011;-71
2022/10/31 12:58:51;;;;;;;7.53;4.72;;;17.70;81.50;;;;;;9164813;19;20122;-71
2022/10/31 13:02:01;;;;;;;9.77;5.43;;;17.70;81.80;;;;;;9165280;19;20015;-72
2022/10/31 13:05:13;;;;;;;14.13;5.78;;;17.70;81.40;;;;;;9165503;19;20463;-72
2022/10/31 13:08:23;;;;;;;13.82;6.70;;;17.70;81.40;;;;;;9166884;19;20094;-71
2022/10/31 13:11:32;;;;;;;15.43;6.03;;;17.70;81.30;;;;;;9168867;19;20119;-73
2022/10/31 13:14:41;;;;;;;13.68;7.07;;;17.70;81.30;;;;;;9163193;19;20497;-73
2022/10/31 13:17:48;;;;;;;17.48;7.78;;;17.80;81.30;;;;;;9162032;19;20018;-72
2022/10/31 13:20:54;;;;;;;20.88;8.95;;;17.80;81.30;;;;;;9161093;19;20093;-71
2022/10/31 13:24:04;;;;;;;13.23;8.20;;;17.80;81.10;;;;;;9168123;19;20345;-71
2022/10/31 13:27:15;;;;;;;16.63;7.40;;;17.80;81.10;;;;;;9167270;19;20014;-72
2022/10/31 13:30:22;;;;;;;18.63;7.38;;;17.80;81.10;;;;;;9169646;19;20018;-74
2022/10/31 13:33:30;;;;;;;14.55;7.45;;;17.80;81.10;;;;;;9164289;19;20014;-74
2022/10/31 13:36:38;;;;;;;18.50;7.57;;;17.80;81.00;;;;;;9160209;19;20022;-74
2022/10/31 13:39:54;;;;;;;14.70;8.18;;;17.80;81.00;;;;;;9164562;19;20019;-73
2022/10/31 13:43:04;;;;;;;21.02;9.88;;;17.80;80.90;;;;;;9162865;19;20049;-74
2022/10/31 13:46:24;;;;;;;21.48;9.27;;;17.80;81.00;;;;;;9165041;19;20022;-73
2022/10/31 13:49:40;;;;;;;24.35;9.45;;;17.80;80.90;;;;;;9159538;19;20487;-72
2022/10/31 13:52:45;;;;;;;28.13;10.20;;;17.90;81.00;;;;;;9166685;19;20022;-74
2022/10/31 13:55:52;;;;;;;25.63;11.52;;;17.90;81.10;;;;;;9165139;19;20027;-75
2022/10/31 13:59:19;;;;;;;23.85;12.65;;;17.90;81.00;;;;;;9165177;19;20022;-73
2022/10/31 14:02:28;;;;;;;28.38;12.65;;;17.90;81.00;;;;;;9167140;19;20015;-74
2022/10/31 14:05:34;;;;;;;28.75;12.88;;;17.90;81.00;;;;;;9161582;19;20143;-73
2022/10/31 14:08:41;;;;;;;29.20;12.88;;;17.90;81.10;;;;;;9167397;19;20052;-72
2022/10/31 14:11:49;;;;;;;28.15;14.00;;;17.90;81.00;;;;;;9163764;19;20019;-73
2022/10/31 14:14:57;;;;;;;29.23;14.45;;;17.90;81.00;;;;;;9167444;19;20031;-72
2022/10/31 14:18:05;;;;;;;30.67;14.30;;;17.90;81.00;;;;;;9163508;19;20018;-74
2022/10/31 14:21:18;;;;;;;29.35;13.98;;;17.90;81.10;;;;;;9156889;19;20018;-72
2022/10/31 14:24:38;;;;;;;30.83;14.63;;;17.90;81.00;;;;;;9165547;19;20590;-71
2022/10/31 14:27:49;;;;;;;28.92;14.10;;;17.90;81.00;;;;;;9166012;19;20107;-73
2022/10/31 14:30:58;;;;;;;29.52;14.27;;;17.90;81.00;;;;;;9164364;19;20029;-72
2022/10/31 14:34:03;;;;;;;32.50;14.68;;;17.80;81.00;;;;;;9174060;19;20034;-73
2022/10/31 14:37:35;;;;;;;30.70;14.80;;;17.80;81.00;;;;;;9173531;19;20498;-73
2022/10/31 14:40:50;;;;;;;30.33;16.20;;;17.90;81.10;;;;;;9173113;19;20472;-72
2022/10/31 14:44:22;;;;;;;31.10;14.32;;;17.80;81.10;;;;;;9172486;19;20489;-74
2022/10/31 14:47:36;;;;;;;29.67;15.73;;;17.80;81.10;;;;;;9173074;19;20048;-72
2022/10/31 14:50:49;;;;;;;37.53;15.65;;;17.70;81.10;;;;;;9168846;19;20090;-74
2022/10/31 14:53:55;;;;;;;34.80;15.70;;;17.70;81.10;;;;;;9174215;19;20030;-73
2022/10/31 14:57:04;;;;;;;30.63;15.85;;;17.70;81.10;;;;;;9170023;19;20015;-73
2022/10/31 15:00:19;;;;;;;28.83;15.45;;;17.70;81.20;;;;;;9171651;19;20040;-71
2022/10/31 15:03:28;;;;;;;32.10;16.40;;;17.70;81.20;;;;;;9170223;19;20078;-71
2022/10/31 15:06:39;;;;;;;35.50;17.42;;;17.70;81.30;;;;;;9174817;19;20018;-73
2022/10/31 15:09:45;;;;;;;46.42;21.08;;;17.70;81.30;;;;;;9169835;19;20029;-70
2022/10/31 15:12:49;;;;;;;52.90;24.35;;;17.70;81.30;;;;;;9176616;19;20014;-70
2022/10/31 15:15:56;;;;;;;;;;;17.70;81.30;;;;;;9176689;19;20019;-73
2022/10/31 15:19:02;;;;;;;71.57;31.48;;;17.70;81.40;;;;;;9180693;19;19915;-72
2022/10/31 15:22:06;;;;;;;50.72;24.98;;;17.70;81.30;;;;;;9178432;19;20014;-73
2022/10/31 15:25:16;;;;;;;;;;;17.60;81.90;;;;;;9179512;19;20035;-72
2022/10/31 15:28:25;;;;;;;36.28;17.30;;;17.60;81.30;;;;;;9178049;19;19926;-73
2022/10/31 15:31:31;;;;;;;31.10;16.33;;;17.60;81.40;;;;;;9180311;19;20038;-73
2022/10/31 15:34:39;;;;;;;47.20;18.08;;;17.60;81.40;;;;;;9180820;19;20070;-74
2022/10/31 15:37:44;;;;;;;37.20;17.40;;;17.60;81.40;;;;;;9179327;19;20027;-74
2022/10/31 15:40:54;;;;;;;37.40;16.45;;;17.50;81.40;;;;;;9175961;19;20130;-73
2022/10/31 15:44:03;;;;;;;43.22;17.08;;;17.50;81.40;;;;;;9177455;19;20550;-73
2022/10/31 15:47:17;;;;;;;28.70;16.02;;;17.50;81.50;;;;;;9178401;19;20017;-73
2022/10/31 15:50:22;;;;;;;;;;;17.50;81.50;;;;;;9178746;19;20677;-73
2022/10/31 15:53:28;;;;;;;35.45;14.68;;;17.40;81.50;;;;;;9178850;19;19986;-74
2022/10/31 15:56:34;;;;;;;30.63;15.13;;;17.40;81.50;;;;;;9178491;19;20387;-74
2022/10/31 15:59:37;;;;;;;37.05;16.02;;;17.40;81.60;;;;;;9178205;19;20086;-70
2022/10/31 16:02:43;;;;;;;38.38;17.23;;;17.40;81.60;;;;;;9176566;19;20014;-73
2022/10/31 16:05:48;;;;;;;34.42;17.10;;;17.30;81.60;;;;;;9174762;19;20014;-74
2022/10/31 16:08:53;;;;;;;31.95;17.15;;;17.30;81.60;;;;;;9176680;19;20078;-72
2022/10/31 16:11:59;;;;;;;39.13;16.75;;;17.30;81.70;;;;;;9178783;19;20421;-72
2022/10/31 16:15:03;;;;;;;38.90;17.50;;;17.20;81.60;;;;;;9174261;19;20010;-74
2022/10/31 16:18:13;;;;;;;32.05;15.63;;;17.30;81.70;;;;;;9178663;19;20023;-74